createdAt,value
2022-08-31T00:00:51.531Z,23.60
2022-08-31T00:03:39.351Z,23.60
2022-08-31T00:06:06.682Z,23.60
2022-08-31T00:08:34.147Z,23.60
2022-08-31T00:11:01.371Z,23.50
2022-08-31T00:13:28.640Z,23.50
2022-08-31T00:15:56.800Z,23.50
2022-08-31T00:18:23.516Z,23.50
2022-08-31T00:20:50.498Z,23.40
2022-08-31T00:23:18.040Z,23.30
2022-08-31T00:25:47.484Z,23.30
2022-08-31T00:28:15.405Z,23.30
2022-08-31T00:30:42.697Z,23.30
2022-08-31T00:33:11.505Z,23.20
2022-08-31T00:35:41.527Z,23.20
2022-08-31T00:38:09.933Z,23.20
2022-08-31T00:40:38.146Z,23.20
2022-08-31T00:43:12.917Z,23.20
2022-08-31T00:45:39.620Z,23.20
2022-08-31T00:48:06.311Z,23.10
2022-08-31T00:50:33.403Z,23.10
2022-08-31T00:53:01.899Z,23.10
2022-08-31T00:55:36.779Z,23.10
2022-08-31T00:58:08.919Z,23.10
2022-08-31T01:00:36.146Z,23.10
2022-08-31T01:03:05.225Z,23.10
2022-08-31T01:05:32.613Z,23.00
2022-08-31T01:08:00.913Z,23.00
2022-08-31T01:10:33.173Z,22.90
2022-08-31T01:13:00.566Z,22.90
2022-08-31T01:15:30.551Z,22.90
2022-08-31T01:18:02.990Z,22.90
2022-08-31T01:20:36.971Z,22.90
2022-08-31T01:23:14.098Z,22.90
2022-08-31T01:25:44.332Z,22.90
2022-08-31T01:28:11.762Z,22.90
2022-08-31T01:30:39.460Z,22.90
2022-08-31T01:33:06.373Z,23.00
2022-08-31T01:35:33.783Z,22.90
2022-08-31T01:38:01.321Z,22.90
2022-08-31T01:40:38.166Z,22.80
2022-08-31T01:43:04.920Z,22.80
2022-08-31T01:45:31.607Z,22.70
2022-08-31T01:47:59.878Z,22.70
2022-08-31T01:50:27.067Z,22.60
2022-08-31T01:52:53.698Z,22.60
2022-08-31T01:55:20.359Z,22.60
2022-08-31T01:57:47.026Z,22.60
2022-08-31T02:00:14.021Z,22.60
2022-08-31T02:02:42.096Z,22.60
2022-08-31T02:05:10.374Z,22.60
2022-08-31T02:07:37.050Z,22.50
2022-08-31T02:10:05.039Z,22.50
2022-08-31T02:12:31.693Z,22.60
2022-08-31T02:14:58.541Z,22.60
2022-08-31T02:17:25.471Z,22.50
2022-08-31T02:19:52.200Z,22.40
2022-08-31T02:22:18.871Z,22.40
2022-08-31T02:24:45.564Z,22.50
2022-08-31T02:27:12.298Z,22.40
2022-08-31T02:29:39.086Z,22.40
2022-08-31T02:32:06.073Z,22.40
2022-08-31T02:34:32.844Z,22.10
2022-08-31T02:36:59.536Z,22.00
2022-08-31T02:39:26.305Z,22.00
2022-08-31T02:41:53.185Z,22.00
2022-08-31T02:44:19.945Z,22.00
2022-08-31T02:46:46.687Z,22.10
2022-08-31T02:49:13.630Z,22.10
2022-08-31T02:51:42.042Z,22.10
2022-08-31T02:54:09.060Z,22.10
2022-08-31T02:56:35.737Z,21.90
2022-08-31T02:59:02.478Z,21.60
2022-08-31T03:01:29.346Z,21.20
2022-08-31T03:03:56.358Z,21.10
2022-08-31T03:06:23.962Z,21.20
2022-08-31T03:08:50.814Z,21.40
2022-08-31T03:11:18.338Z,21.50
2022-08-31T03:13:45.126Z,21.50
2022-08-31T03:16:14.611Z,21.60
2022-08-31T03:18:42.068Z,21.70
2022-08-31T03:21:08.776Z,21.70
2022-08-31T03:23:36.572Z,21.70
2022-08-31T03:26:05.595Z,21.80
2022-08-31T03:28:33.863Z,21.80
2022-08-31T03:31:00.596Z,21.80
2022-08-31T03:33:27.243Z,21.80
2022-08-31T03:35:54.996Z,21.70
2022-08-31T03:38:21.586Z,21.80
2022-08-31T03:40:48.494Z,21.70
2022-08-31T03:43:15.331Z,21.70
2022-08-31T03:45:43.003Z,21.70
2022-08-31T03:48:12.761Z,21.70
2022-08-31T03:50:41.351Z,21.60
2022-08-31T03:53:09.402Z,21.60
2022-08-31T03:55:39.421Z,21.70
2022-08-31T03:58:07.867Z,21.70
2022-08-31T04:00:35.418Z,21.70
2022-08-31T04:03:02.438Z,21.70
2022-08-31T04:05:32.081Z,21.70
2022-08-31T04:07:59.127Z,21.80
2022-08-31T04:10:26.076Z,21.70
2022-08-31T04:12:52.900Z,21.70
2022-08-31T04:15:19.871Z,21.80
2022-08-31T04:17:47.237Z,21.70
2022-08-31T04:20:14.722Z,21.70
2022-08-31T04:22:43.769Z,21.70
2022-08-31T04:25:10.591Z,21.70
2022-08-31T04:27:40.570Z,21.70
2022-08-31T04:30:09.087Z,21.70
2022-08-31T04:32:35.943Z,21.80
2022-08-31T04:35:03.561Z,21.60
2022-08-31T04:37:30.771Z,21.70
2022-08-31T04:39:59.331Z,21.70
2022-08-31T04:42:30.166Z,21.70
2022-08-31T04:44:56.884Z,21.70
2022-08-31T04:47:23.520Z,21.80
2022-08-31T04:49:50.145Z,21.70
2022-08-31T04:52:17.045Z,21.70
2022-08-31T04:54:43.707Z,21.70
2022-08-31T04:57:10.662Z,21.70
2022-08-31T04:59:37.264Z,21.70
2022-08-31T05:02:04.076Z,21.60
2022-08-31T05:04:31.775Z,21.60
2022-08-31T05:06:58.880Z,21.60
2022-08-31T05:09:25.803Z,21.60
2022-08-31T05:11:54.398Z,21.60
2022-08-31T05:14:22.242Z,21.60
2022-08-31T05:16:49.292Z,21.60
2022-08-31T05:19:16.170Z,21.60
2022-08-31T05:21:43.629Z,21.60
2022-08-31T05:24:20.174Z,21.60
2022-08-31T05:26:49.403Z,21.60
2022-08-31T05:29:21.741Z,21.60
2022-08-31T05:31:52.294Z,21.60
2022-08-31T05:34:21.188Z,21.50
2022-08-31T05:36:52.298Z,21.40
2022-08-31T05:39:19.595Z,21.40
2022-08-31T05:41:47.508Z,21.50
2022-08-31T05:44:14.974Z,21.50
2022-08-31T05:46:42.095Z,21.50
2022-08-31T05:49:09.546Z,21.50
2022-08-31T05:51:38.640Z,21.60
2022-08-31T05:54:05.978Z,21.60
2022-08-31T05:56:32.842Z,21.60
2022-08-31T05:58:59.532Z,21.70
2022-08-31T06:01:30.518Z,21.60
2022-08-31T06:03:58.317Z,21.60
2022-08-31T06:06:25.825Z,21.70
2022-08-31T06:08:53.007Z,21.70
2022-08-31T06:11:22.534Z,21.70
2022-08-31T06:13:52.247Z,21.70
2022-08-31T06:16:20.036Z,21.70
2022-08-31T06:18:51.064Z,21.70
2022-08-31T06:21:23.953Z,21.70
2022-08-31T06:23:52.621Z,21.70
2022-08-31T06:26:21.551Z,21.70
2022-08-31T06:28:51.732Z,21.60
2022-08-31T06:31:27.992Z,21.60
2022-08-31T06:33:58.572Z,21.50
2022-08-31T06:36:27.108Z,21.60
2022-08-31T06:38:56.794Z,21.60
2022-08-31T06:41:27.028Z,21.60
2022-08-31T06:43:55.453Z,21.60
2022-08-31T06:46:23.593Z,21.60
2022-08-31T06:48:53.356Z,21.60
2022-08-31T06:51:20.338Z,21.60
2022-08-31T06:53:46.977Z,21.60
2022-08-31T06:56:20.908Z,21.60
2022-08-31T06:58:53.835Z,21.70
2022-08-31T07:01:34.873Z,21.70
2022-08-31T07:04:06.448Z,21.70
2022-08-31T07:06:37.898Z,21.70
2022-08-31T07:09:06.888Z,21.70
2022-08-31T07:11:42.151Z,21.70
2022-08-31T07:14:13.052Z,21.70
2022-08-31T07:16:40.436Z,21.70
2022-08-31T07:19:08.252Z,21.70
2022-08-31T07:21:41.235Z,21.70
2022-08-31T07:24:10.094Z,21.70
2022-08-31T07:26:46.392Z,21.70
2022-08-31T07:29:15.954Z,21.80
2022-08-31T07:31:50.320Z,21.80
2022-08-31T07:34:19.831Z,21.80
2022-08-31T07:37:06.469Z,21.80
2022-08-31T07:39:52.471Z,21.70
2022-08-31T07:42:28.570Z,21.70
2022-08-31T07:44:56.718Z,21.80
2022-08-31T07:47:27.078Z,21.80
2022-08-31T07:49:55.560Z,21.80
2022-08-31T07:52:25.703Z,21.90
2022-08-31T07:54:55.600Z,21.90
2022-08-31T07:57:25.905Z,22.00
2022-08-31T08:00:07.850Z,21.90
2022-08-31T08:02:38.999Z,21.90
2022-08-31T08:05:11.495Z,21.90
2022-08-31T08:07:40.361Z,21.90
2022-08-31T08:10:14.692Z,21.90
2022-08-31T08:12:43.959Z,21.90
2022-08-31T08:15:11.008Z,21.90
2022-08-31T08:17:37.982Z,21.90
2022-08-31T08:20:08.451Z,22.00
2022-08-31T08:22:54.007Z,22.00
2022-08-31T08:25:25.727Z,22.00
2022-08-31T08:27:54.327Z,21.90
2022-08-31T08:30:21.800Z,21.90
2022-08-31T08:32:48.744Z,21.90
2022-08-31T08:35:16.440Z,21.80
2022-08-31T08:37:57.766Z,21.80
2022-08-31T08:40:37.128Z,21.80
2022-08-31T08:43:06.065Z,21.80
2022-08-31T08:45:33.980Z,21.80
2022-08-31T08:48:01.769Z,21.80
2022-08-31T08:50:31.057Z,21.80
2022-08-31T08:53:03.447Z,21.80
2022-08-31T08:55:39.146Z,21.90
2022-08-31T08:58:10.467Z,21.90
2022-08-31T09:00:42.308Z,22.00
2022-08-31T09:03:21.582Z,21.90
2022-08-31T09:06:23.490Z,22.00
2022-08-31T09:09:38.292Z,22.00
2022-08-31T09:12:30.737Z,22.00
2022-08-31T09:15:36.199Z,22.00
2022-08-31T09:18:07.434Z,22.00
2022-08-31T09:20:34.159Z,22.00
2022-08-31T09:23:01.134Z,22.00
2022-08-31T09:25:33.028Z,22.00
2022-08-31T09:28:03.721Z,22.10
2022-08-31T09:30:44.617Z,22.10
2022-08-31T09:33:29.820Z,22.10
2022-08-31T09:36:14.644Z,22.20
2022-08-31T09:38:42.075Z,22.20
2022-08-31T09:41:30.856Z,22.20
2022-08-31T09:44:20.420Z,22.30
2022-08-31T09:46:50.684Z,22.30
2022-08-31T09:49:24.889Z,22.30
2022-08-31T09:51:52.183Z,22.30
2022-08-31T09:54:45.914Z,22.30
2022-08-31T09:57:13.867Z,22.30
2022-08-31T09:59:44.025Z,22.40
2022-08-31T10:02:22.596Z,22.40
2022-08-31T10:04:54.433Z,22.40
2022-08-31T10:07:38.452Z,22.40
2022-08-31T10:10:27.946Z,22.30
2022-08-31T10:13:11.323Z,22.30
2022-08-31T10:15:50.796Z,22.20
2022-08-31T10:18:32.337Z,22.30
2022-08-31T10:21:11.387Z,22.40
2022-08-31T10:23:57.392Z,22.50
2022-08-31T10:26:36.737Z,22.50
2022-08-31T10:29:19.148Z,22.50
2022-08-31T10:31:53.831Z,22.60
2022-08-31T10:34:43.431Z,22.70
2022-08-31T10:37:16.947Z,22.60
2022-08-31T10:39:48.583Z,22.70
2022-08-31T10:42:21.676Z,22.80
2022-08-31T10:44:57.217Z,22.70
2022-08-31T10:47:33.083Z,22.70
2022-08-31T10:50:05.229Z,22.70
2022-08-31T10:52:42.950Z,22.80
2022-08-31T10:55:28.874Z,22.60
2022-08-31T10:58:01.387Z,22.80
2022-08-31T11:00:45.819Z,22.80
2022-08-31T11:03:40.225Z,22.80
2022-08-31T11:06:28.087Z,22.70
2022-08-31T11:09:15.020Z,22.80
2022-08-31T11:12:13.552Z,22.80
2022-08-31T11:14:58.517Z,22.80
2022-08-31T11:17:57.437Z,22.80
2022-08-31T11:20:34.364Z,22.80
2022-08-31T11:23:30.104Z,22.80
2022-08-31T11:26:18.472Z,22.80
2022-08-31T11:28:55.675Z,22.80
2022-08-31T11:31:27.362Z,22.80
2022-08-31T11:34:24.578Z,22.80
2022-08-31T11:37:01.084Z,22.90
2022-08-31T11:39:30.977Z,22.90
2022-08-31T11:41:59.181Z,22.90
2022-08-31T11:44:37.140Z,22.90
2022-08-31T11:47:34.552Z,22.90
2022-08-31T11:50:11.504Z,22.90
2022-08-31T11:52:48.077Z,22.90
2022-08-31T11:55:18.370Z,22.90
2022-08-31T11:58:12.608Z,22.90
2022-08-31T12:01:18.930Z,22.80
2022-08-31T12:03:51.319Z,22.80
2022-08-31T12:06:32.219Z,22.70
2022-08-31T12:09:14.766Z,22.70
2022-08-31T12:11:48.289Z,22.70
2022-08-31T12:14:24.127Z,22.70
2022-08-31T12:17:13.633Z,22.80
2022-08-31T12:20:01.980Z,22.70
2022-08-31T12:23:29.841Z,22.70
2022-08-31T12:26:16.691Z,22.70
2022-08-31T12:28:58.334Z,22.70
2022-08-31T12:31:25.278Z,22.70
2022-08-31T12:34:06.257Z,22.70
2022-08-31T12:36:36.073Z,22.70
2022-08-31T12:39:12.025Z,22.70
2022-08-31T12:41:44.199Z,22.70
2022-08-31T12:44:14.016Z,22.70
2022-08-31T12:47:03.344Z,22.70
2022-08-31T12:50:18.107Z,22.70
2022-08-31T12:53:05.627Z,22.60
2022-08-31T12:55:51.613Z,22.60
2022-08-31T12:58:51.017Z,22.70
2022-08-31T13:01:24.271Z,22.80
2022-08-31T13:03:56.282Z,22.80
2022-08-31T13:06:32.658Z,22.80
2022-08-31T13:09:00.869Z,22.80
2022-08-31T13:11:35.167Z,22.80
2022-08-31T13:14:13.728Z,22.80
2022-08-31T13:16:46.477Z,22.80
2022-08-31T13:19:24.026Z,22.70
2022-08-31T13:21:53.723Z,22.60
2022-08-31T13:24:30.810Z,22.30
2022-08-31T13:27:29.079Z,22.10
2022-08-31T13:30:09.864Z,21.80
2022-08-31T13:32:40.799Z,21.70
2022-08-31T13:35:11.041Z,21.60
2022-08-31T13:37:42.982Z,21.40
2022-08-31T13:40:16.599Z,21.20
2022-08-31T13:42:50.013Z,21.10
2022-08-31T13:45:29.032Z,21.00
2022-08-31T13:47:59.512Z,20.90
2022-08-31T13:50:32.787Z,20.90
2022-08-31T13:53:25.955Z,20.90
2022-08-31T13:55:51.271Z,20.90
2022-08-31T13:58:30.279Z,21.00
2022-08-31T14:01:20.251Z,21.10
2022-08-31T14:03:59.501Z,21.00
2022-08-31T14:06:34.759Z,21.00
2022-08-31T14:09:16.441Z,20.90
2022-08-31T14:12:01.221Z,20.90
2022-08-31T14:14:39.774Z,20.90
2022-08-31T14:17:15.344Z,20.90
2022-08-31T14:19:43.798Z,21.10
2022-08-31T14:22:30.398Z,21.10
2022-08-31T14:25:00.636Z,21.20
2022-08-31T14:27:28.121Z,21.30
2022-08-31T14:29:55.073Z,21.30
2022-08-31T14:32:25.036Z,21.40
2022-08-31T14:34:52.797Z,21.60
2022-08-31T14:37:20.270Z,21.70
2022-08-31T14:39:53.812Z,21.80
2022-08-31T14:42:33.403Z,21.90
2022-08-31T14:45:18.475Z,22.10
2022-08-31T14:47:47.835Z,22.20
2022-08-31T14:50:18.181Z,22.20
2022-08-31T14:52:52.869Z,22.20
2022-08-31T14:55:24.526Z,22.20
2022-08-31T14:57:58.648Z,22.20
2022-08-31T15:00:26.328Z,22.20
2022-08-31T15:02:53.703Z,22.20
2022-08-31T15:05:23.282Z,22.10
2022-08-31T15:07:52.955Z,22.20
2022-08-31T15:10:22.867Z,22.10
2022-08-31T15:12:50.355Z,22.20
2022-08-31T15:15:20.611Z,22.20
2022-08-31T15:17:50.459Z,22.20
2022-08-31T15:20:19.566Z,22.20
2022-08-31T15:22:47.799Z,22.20
2022-08-31T15:25:15.161Z,22.30
2022-08-31T15:27:44.029Z,22.30
2022-08-31T15:30:16.117Z,22.30
2022-08-31T15:32:45.052Z,22.30
2022-08-31T15:35:17.966Z,22.20
2022-08-31T15:37:52.882Z,22.30
2022-08-31T15:40:21.629Z,22.20
2022-08-31T15:42:50.190Z,22.20
2022-08-31T15:45:17.253Z,22.20
2022-08-31T15:48:02.328Z,22.20
2022-08-31T15:50:31.628Z,22.20
2022-08-31T15:53:05.156Z,22.20
2022-08-31T15:55:38.816Z,22.20
2022-08-31T15:58:07.693Z,22.20
2022-08-31T16:00:36.248Z,22.10
2022-08-31T16:03:03.645Z,22.20
2022-08-31T16:05:39.137Z,22.10
2022-08-31T16:08:10.211Z,22.10
2022-08-31T16:10:41.349Z,22.10
2022-08-31T16:13:09.520Z,22.10
2022-08-31T16:15:38.143Z,22.10
2022-08-31T16:18:05.958Z,22.10
2022-08-31T16:20:34.352Z,22.00
2022-08-31T16:23:01.213Z,22.00
2022-08-31T16:25:30.413Z,22.00
2022-08-31T16:28:14.671Z,21.90
2022-08-31T16:30:43.718Z,21.90
2022-08-31T16:33:11.454Z,21.90
2022-08-31T16:35:39.422Z,21.90
2022-08-31T16:38:06.998Z,22.00
2022-08-31T16:40:35.298Z,21.90
2022-08-31T16:43:02.260Z,21.90
2022-08-31T16:45:29.161Z,21.80
2022-08-31T16:48:16.061Z,21.80
2022-08-31T16:50:46.983Z,21.90
2022-08-31T16:53:16.490Z,21.90
2022-08-31T16:55:44.286Z,22.00
2022-08-31T16:58:13.731Z,22.10
2022-08-31T17:00:45.314Z,22.00
2022-08-31T17:03:11.984Z,22.00
2022-08-31T17:05:38.629Z,21.90
2022-08-31T17:08:05.371Z,21.90
2022-08-31T17:10:34.370Z,21.90
2022-08-31T17:13:01.053Z,21.90
2022-08-31T17:15:27.781Z,21.90
2022-08-31T17:17:55.115Z,21.90
2022-08-31T17:20:21.910Z,21.90
2022-08-31T17:22:50.103Z,21.80
2022-08-31T17:25:17.690Z,21.80
2022-08-31T17:27:45.549Z,21.80
2022-08-31T17:30:18.179Z,21.70
2022-08-31T17:32:46.134Z,21.70
2022-08-31T17:35:17.985Z,21.70
2022-08-31T17:37:44.885Z,21.60
2022-08-31T17:40:14.114Z,21.60
2022-08-31T17:42:42.040Z,21.60
2022-08-31T17:45:09.693Z,21.60
2022-08-31T17:47:36.425Z,21.60
2022-08-31T17:50:03.957Z,21.60
2022-08-31T17:52:30.807Z,21.60
2022-08-31T17:55:00.707Z,21.60
2022-08-31T17:57:28.024Z,21.60
2022-08-31T17:59:55.200Z,21.60
2022-08-31T18:02:27.909Z,21.60
2022-08-31T18:04:54.714Z,21.60
2022-08-31T18:07:21.822Z,21.50
2022-08-31T18:09:48.707Z,21.60
2022-08-31T18:12:16.899Z,21.60
2022-08-31T18:14:44.188Z,21.60
2022-08-31T18:17:13.814Z,21.60
2022-08-31T18:19:40.538Z,21.70
2022-08-31T18:22:07.484Z,21.70
2022-08-31T18:24:36.892Z,21.70
2022-08-31T18:27:07.269Z,21.70
2022-08-31T18:29:36.474Z,21.70
2022-08-31T18:32:05.094Z,21.70
2022-08-31T18:34:35.334Z,21.60
2022-08-31T18:37:02.379Z,21.70
2022-08-31T18:39:51.867Z,21.70
2022-08-31T18:42:39.339Z,21.80
2022-08-31T18:45:18.633Z,21.70
2022-08-31T18:50:42.367Z,21.70
2022-08-31T18:53:11.034Z,21.70
2022-08-31T18:55:42.414Z,21.80
2022-08-31T18:58:09.193Z,21.80
2022-08-31T19:00:36.047Z,21.80
2022-08-31T19:03:03.027Z,21.80
2022-08-31T19:05:31.445Z,21.80
2022-08-31T19:08:00.165Z,21.70
2022-08-31T19:10:28.084Z,21.70
2022-08-31T19:12:56.152Z,21.70
2022-08-31T19:15:25.625Z,21.70
2022-08-31T19:18:02.353Z,21.80
2022-08-31T19:20:30.380Z,21.80
2022-08-31T19:22:57.245Z,21.70
2022-08-31T19:25:24.504Z,21.70
2022-08-31T19:27:51.974Z,21.70
2022-08-31T19:30:24.487Z,21.70
2022-08-31T19:32:54.207Z,21.70
2022-08-31T19:35:21.301Z,21.70
2022-08-31T19:37:51.739Z,21.70
2022-08-31T19:40:21.032Z,21.70
2022-08-31T19:45:43.784Z,21.70
2022-08-31T19:48:12.915Z,21.80
2022-08-31T19:50:42.261Z,21.80
2022-08-31T19:53:13.461Z,21.80
2022-08-31T19:55:51.416Z,21.80
2022-08-31T19:58:25.483Z,21.70
2022-08-31T20:01:00.590Z,21.80
2022-08-31T20:03:31.335Z,21.80
2022-08-31T20:05:59.421Z,21.80
2022-08-31T20:08:26.232Z,21.70
2022-08-31T20:10:52.895Z,21.70
2022-08-31T20:13:24.636Z,21.70
2022-08-31T20:15:53.017Z,21.70
2022-08-31T20:18:20.840Z,21.70
2022-08-31T20:20:51.948Z,21.70
2022-08-31T20:23:21.190Z,21.70
2022-08-31T20:25:50.077Z,21.70
2022-08-31T20:28:19.113Z,21.70
2022-08-31T20:30:45.821Z,21.60
2022-08-31T20:33:12.621Z,21.60
2022-08-31T20:35:47.638Z,21.60
2022-08-31T20:38:16.153Z,21.60
2022-08-31T20:40:44.662Z,21.50
2022-08-31T20:43:12.589Z,21.50
2022-08-31T20:45:41.268Z,21.50
2022-08-31T20:48:27.477Z,21.50
2022-08-31T20:50:55.883Z,21.50
2022-08-31T20:53:42.152Z,21.50
2022-08-31T20:56:14.748Z,21.50
2022-08-31T20:58:44.499Z,21.50
2022-08-31T21:01:14.202Z,21.50
2022-08-31T21:03:41.420Z,21.50
2022-08-31T21:06:11.370Z,21.50
2022-08-31T21:08:40.939Z,21.50
2022-08-31T21:11:13.536Z,21.50
2022-08-31T21:13:40.337Z,21.50
2022-08-31T21:16:07.351Z,21.50
2022-08-31T21:18:34.904Z,21.50
2022-08-31T21:21:06.587Z,21.50
2022-08-31T21:23:33.810Z,21.40
2022-08-31T21:26:00.710Z,21.50
2022-08-31T21:28:30.709Z,21.30
2022-08-31T21:31:27.624Z,21.30
2022-08-31T21:33:59.119Z,21.30
2022-08-31T21:36:26.866Z,21.30
2022-08-31T21:38:57.609Z,21.30
2022-08-31T21:41:32.453Z,21.30
2022-08-31T21:44:00.782Z,21.30
2022-08-31T21:46:29.568Z,21.20
2022-08-31T21:48:58.879Z,21.20
2022-08-31T21:51:32.171Z,21.20
2022-08-31T21:54:01.839Z,21.20
2022-08-31T21:56:31.508Z,21.20
2022-08-31T21:58:59.485Z,21.20
2022-08-31T22:01:29.496Z,21.20
2022-08-31T22:03:59.082Z,21.20
2022-08-31T22:06:29.045Z,21.20
2022-08-31T22:09:00.829Z,21.20
2022-08-31T22:11:31.182Z,21.20
2022-08-31T22:13:59.340Z,21.20
2022-08-31T22:16:27.649Z,21.20
2022-08-31T22:19:01.844Z,21.10
2022-08-31T22:21:34.096Z,21.10
2022-08-31T22:24:07.400Z,21.10
2022-08-31T22:26:37.881Z,21.20
2022-08-31T22:29:06.591Z,21.20
2022-08-31T22:31:38.619Z,21.10
2022-08-31T22:34:08.016Z,21.10
2022-08-31T22:36:35.163Z,21.20
2022-08-31T22:39:08.334Z,21.10
2022-08-31T22:41:37.288Z,21.10
2022-08-31T22:44:06.352Z,21.10
2022-08-31T22:46:34.682Z,21.10
2022-08-31T22:49:01.862Z,21.10
2022-08-31T22:51:29.257Z,21.10
2022-08-31T22:53:56.097Z,21.10
2022-08-31T22:56:26.620Z,21.10
2022-08-31T22:58:55.141Z,21.10
2022-08-31T23:01:37.761Z,21.10
2022-08-31T23:04:06.643Z,21.00
2022-08-31T23:06:35.376Z,21.00
2022-08-31T23:09:04.442Z,21.00
2022-08-31T23:11:31.114Z,21.00
2022-08-31T23:14:00.302Z,21.00
2022-08-31T23:16:34.617Z,21.00
2022-08-31T23:19:12.169Z,20.90
2022-08-31T23:21:45.460Z,21.00
2022-08-31T23:24:16.608Z,20.90
2022-08-31T23:26:45.148Z,20.90
2022-08-31T23:29:13.247Z,21.00
2022-08-31T23:31:40.388Z,20.90
2022-08-31T23:34:11.483Z,20.90
2022-08-31T23:36:40.630Z,20.90
2022-08-31T23:39:08.585Z,20.90
2022-08-31T23:41:37.773Z,20.90
2022-08-31T23:44:08.571Z,20.80
2022-08-31T23:46:37.553Z,20.80
2022-08-31T23:49:07.150Z,20.80
2022-08-31T23:51:34.449Z,20.80
2022-08-31T23:54:06.317Z,20.80
2022-08-31T23:56:36.065Z,20.80
2022-08-31T23:59:08.936Z,20.80
